createdAt,value
2022-10-11T00:02:17.614Z,12.38
2022-10-11T00:04:45.826Z,12.59
2022-10-11T00:07:13.463Z,12.45
2022-10-11T00:09:41.128Z,12.18
2022-10-11T00:12:08.929Z,12.34
2022-10-11T00:14:36.650Z,12.21
2022-10-11T00:17:04.556Z,12.24
2022-10-11T00:19:33.605Z,12.33
2022-10-11T00:22:01.339Z,12.41
2022-10-11T00:24:29.211Z,12.23
2022-10-11T00:26:56.927Z,12.28
2022-10-11T00:29:24.754Z,12.54
2022-10-11T00:31:52.442Z,12.38
2022-10-11T00:34:20.095Z,12.15
2022-10-11T00:36:49.154Z,12.59
2022-10-11T00:39:16.917Z,12.34
2022-10-11T00:41:44.741Z,12.34
2022-10-11T00:44:15.190Z,12.30
2022-10-11T00:46:47.073Z,11.85
2022-10-11T00:49:20.691Z,12.23
2022-10-11T00:51:54.099Z,12.32
2022-10-11T00:54:25.271Z,12.10
2022-10-11T00:56:57.368Z,12.22
2022-10-11T00:59:28.794Z,11.93
2022-10-11T01:01:57.007Z,11.98
2022-10-11T01:04:24.861Z,11.92
2022-10-11T01:06:55.704Z,12.17
2022-10-11T01:09:23.940Z,12.05
2022-10-11T01:11:54.316Z,12.26
2022-10-11T01:14:38.848Z,12.30
2022-10-11T01:17:19.783Z,12.29
2022-10-11T01:20:03.601Z,12.02
2022-10-11T01:23:10.499Z,12.24
2022-10-11T01:25:48.772Z,12.45
2022-10-11T01:28:28.850Z,12.48
2022-10-11T01:31:05.471Z,12.12
2022-10-11T01:33:40.650Z,12.31
2022-10-11T01:36:15.293Z,12.45
2022-10-11T01:38:48.442Z,12.54
2022-10-11T01:41:20.448Z,12.48
2022-10-11T01:43:49.451Z,12.37
2022-10-11T01:46:20.690Z,12.67
2022-10-11T01:48:50.101Z,12.57
2022-10-11T01:51:23.055Z,12.39
2022-10-11T01:54:02.826Z,12.30
2022-10-11T01:56:49.503Z,12.09
2022-10-11T01:59:28.441Z,11.89
2022-10-11T02:02:11.961Z,11.53
2022-10-11T02:04:44.852Z,11.88
2022-10-11T02:07:21.176Z,11.89
2022-10-11T02:09:54.014Z,11.84
2022-10-11T02:12:28.958Z,11.95
2022-10-11T02:14:58.733Z,12.03
2022-10-11T02:17:33.002Z,11.68
2022-10-11T02:20:04.952Z,11.75
2022-10-11T02:22:35.191Z,11.54
2022-10-11T02:25:06.896Z,11.62
2022-10-11T02:27:36.945Z,11.73
2022-10-11T02:30:08.331Z,11.74
2022-10-11T02:32:41.140Z,11.70
2022-10-11T02:35:10.577Z,11.79
2022-10-11T02:37:46.334Z,11.62
2022-10-11T02:40:20.949Z,11.72
2022-10-11T02:42:54.618Z,11.76
2022-10-11T02:45:26.859Z,11.61
2022-10-11T02:47:56.229Z,11.59
2022-10-11T02:50:24.420Z,11.62
2022-10-11T02:52:52.058Z,11.57
2022-10-11T02:55:19.936Z,11.30
2022-10-11T02:57:47.607Z,11.67
2022-10-11T03:00:16.293Z,11.58
2022-10-11T03:02:43.925Z,11.67
2022-10-11T03:05:12.955Z,11.79
2022-10-11T03:07:40.656Z,11.78
2022-10-11T03:10:08.994Z,11.62
2022-10-11T03:12:36.681Z,11.60
2022-10-11T03:15:04.767Z,11.71
2022-10-11T03:17:36.718Z,11.42
2022-10-11T03:20:05.808Z,11.40
2022-10-11T03:22:34.963Z,11.37
2022-10-11T03:25:04.422Z,11.32
2022-10-11T03:27:32.855Z,11.45
2022-10-11T03:30:00.596Z,11.39
2022-10-11T03:32:28.706Z,10.96
2022-10-11T03:34:56.439Z,11.21
2022-10-11T03:37:25.181Z,11.29
2022-10-11T03:39:54.251Z,11.44
2022-10-11T03:42:22.005Z,11.45
2022-10-11T03:44:51.904Z,11.26
2022-10-11T03:47:19.872Z,11.31
2022-10-11T03:49:47.556Z,11.21
2022-10-11T03:52:15.230Z,11.14
2022-10-11T03:54:43.093Z,11.27
2022-10-11T03:57:12.180Z,11.30
2022-10-11T03:59:39.877Z,11.22
2022-10-11T04:02:07.690Z,11.32
2022-10-11T04:04:35.791Z,10.99
2022-10-11T04:07:03.504Z,11.01
2022-10-11T04:09:31.330Z,11.09
2022-10-11T04:11:59.233Z,11.01
2022-10-11T04:14:28.445Z,11.19
2022-10-11T04:17:00.142Z,11.14
2022-10-11T04:19:28.469Z,10.95
2022-10-11T04:21:56.143Z,10.79
2022-10-11T04:24:23.905Z,10.69
2022-10-11T04:26:51.581Z,11.00
2022-10-11T04:29:19.440Z,11.14
2022-10-11T04:31:48.501Z,11.11
2022-10-11T04:34:16.485Z,11.21
2022-10-11T04:36:49.593Z,11.47
2022-10-11T04:39:17.627Z,11.18
2022-10-11T04:41:45.354Z,11.40
2022-10-11T04:44:13.081Z,10.99
2022-10-11T04:46:40.789Z,10.63
2022-10-11T04:49:09.914Z,10.30
2022-10-11T04:51:37.909Z,10.70
2022-10-11T04:54:05.682Z,10.89
2022-10-11T04:56:33.540Z,11.00
2022-10-11T04:59:01.369Z,10.93
2022-10-11T05:01:29.177Z,11.03
2022-10-11T05:03:56.933Z,10.94
2022-10-11T05:06:25.959Z,10.96
2022-10-11T05:08:53.753Z,10.79
2022-10-11T05:11:21.477Z,10.46
2022-10-11T05:13:49.146Z,10.62
2022-10-11T05:16:17.701Z,10.86
2022-10-11T05:18:45.877Z,10.71
2022-10-11T05:21:17.945Z,10.73
2022-10-11T05:23:48.532Z,11.15
2022-10-11T05:26:17.130Z,11.09
2022-10-11T05:28:45.167Z,10.78
2022-10-11T05:31:13.036Z,10.66
2022-10-11T05:33:40.713Z,10.71
2022-10-11T05:36:09.522Z,10.70
2022-10-11T05:38:38.050Z,11.20
2022-10-11T05:41:09.086Z,10.75
2022-10-11T05:43:37.449Z,9.85
2022-10-11T05:46:05.748Z,10.84
2022-10-11T05:48:33.662Z,10.97
2022-10-11T05:51:02.988Z,10.71
2022-10-11T05:53:30.960Z,10.60
2022-10-11T05:55:59.033Z,10.51
2022-10-11T05:58:28.568Z,10.58
2022-10-11T06:00:56.981Z,10.64
2022-10-11T06:03:25.166Z,10.53
2022-10-11T06:05:56.739Z,11.03
2022-10-11T06:08:24.998Z,10.81
2022-10-11T06:10:52.756Z,10.94
2022-10-11T06:13:20.408Z,11.08
2022-10-11T06:15:49.453Z,11.27
2022-10-11T06:18:17.166Z,11.65
2022-10-11T06:20:44.879Z,12.00
2022-10-11T06:23:12.577Z,12.08
2022-10-11T06:25:40.282Z,12.29
2022-10-11T06:28:08.021Z,12.04
2022-10-11T06:30:35.787Z,12.20
2022-10-11T06:33:05.275Z,12.33
2022-10-11T06:35:32.997Z,11.78
2022-10-11T06:38:00.685Z,11.55
2022-10-11T06:40:28.446Z,11.34
2022-10-11T06:42:56.247Z,11.58
2022-10-11T06:45:24.037Z,11.68
2022-10-11T06:47:51.803Z,12.35
2022-10-11T06:50:40.619Z,12.78
2022-10-11T06:53:09.277Z,12.94
2022-10-11T06:55:37.132Z,12.70
2022-10-11T06:58:04.854Z,11.99
2022-10-11T07:00:32.609Z,12.52
2022-10-11T07:03:00.375Z,12.68
2022-10-11T07:05:32.031Z,11.83
2022-10-11T07:07:59.868Z,11.89
2022-10-11T07:10:27.747Z,12.44
2022-10-11T07:12:55.461Z,12.83
2022-10-11T07:15:23.215Z,12.22
2022-10-11T07:17:50.886Z,12.71
2022-10-11T07:20:18.787Z,12.41
2022-10-11T07:22:47.897Z,12.91
2022-10-11T07:25:15.658Z,13.74
2022-10-11T07:27:43.430Z,13.91
2022-10-11T07:30:12.115Z,14.32
2022-10-11T07:32:39.820Z,14.33
2022-10-11T07:35:08.021Z,12.88
2022-10-11T07:37:35.715Z,13.32
2022-10-11T07:40:06.967Z,14.30
2022-10-11T07:42:34.710Z,14.53
2022-10-11T07:45:02.558Z,15.12
2022-10-11T07:47:30.235Z,15.58
2022-10-11T07:49:58.033Z,16.33
2022-10-11T07:52:25.744Z,18.70
2022-10-11T07:54:53.412Z,20.80
2022-10-11T07:57:22.545Z,22.06
2022-10-11T07:59:50.530Z,22.82
2022-10-11T08:02:18.416Z,23.47
2022-10-11T08:04:46.117Z,24.16
2022-10-11T08:07:13.779Z,24.49
2022-10-11T08:09:41.699Z,24.95
2022-10-11T08:12:09.416Z,24.07
2022-10-11T08:14:38.642Z,23.17
2022-10-11T08:17:06.368Z,23.31
2022-10-11T08:19:34.140Z,23.19
2022-10-11T08:22:02.128Z,24.20
2022-10-11T08:24:31.066Z,24.12
2022-10-11T08:27:01.288Z,25.76
2022-10-11T08:29:28.908Z,24.46
2022-10-11T08:31:58.390Z,23.87
2022-10-11T08:34:26.207Z,24.32
2022-10-11T08:36:53.893Z,25.31
2022-10-11T08:39:21.564Z,25.38
2022-10-11T08:41:54.235Z,25.27
2022-10-11T08:44:58.731Z,23.87
2022-10-11T08:47:32.335Z,20.82
2022-10-11T08:50:01.527Z,19.78
2022-10-11T08:52:34.788Z,19.93
2022-10-11T08:55:08.452Z,18.66
2022-10-11T08:57:38.466Z,17.45
2022-10-11T09:00:08.688Z,17.23
2022-10-11T09:03:07.505Z,16.81
2022-10-11T09:05:37.351Z,17.25
2022-10-11T09:08:11.655Z,17.29
2022-10-11T09:10:59.969Z,17.84
2022-10-11T09:13:52.362Z,17.59
2022-10-11T09:16:32.563Z,17.35
2022-10-11T09:19:39.050Z,16.99
2022-10-11T09:22:13.098Z,17.39
2022-10-11T09:24:58.144Z,16.53
2022-10-11T09:27:57.303Z,16.90
2022-10-11T09:30:20.826Z,17.17
2022-10-11T09:32:55.255Z,17.25
2022-10-11T09:35:24.425Z,17.19
2022-10-11T09:38:01.814Z,17.53
2022-10-11T09:40:44.625Z,17.24
2022-10-11T09:43:13.138Z,17.16
2022-10-11T09:45:49.132Z,17.53
2022-10-11T09:48:21.700Z,17.58
2022-10-11T09:50:52.487Z,16.94
2022-10-11T09:53:21.940Z,16.80
2022-10-11T09:55:54.266Z,17.24
2022-10-11T09:58:31.063Z,17.57
2022-10-11T10:01:07.666Z,17.95
2022-10-11T10:03:37.455Z,17.45
2022-10-11T10:06:09.659Z,17.41
2022-10-11T10:08:37.840Z,17.77
2022-10-11T10:11:08.261Z,18.07
2022-10-11T10:13:43.198Z,17.67
2022-10-11T10:16:22.022Z,17.51
2022-10-11T10:18:53.608Z,17.73
2022-10-11T10:21:29.585Z,17.61
2022-10-11T10:24:00.085Z,17.75
2022-10-11T10:26:28.508Z,17.74
2022-10-11T10:29:02.856Z,17.75
2022-10-11T10:31:55.373Z,17.98
2022-10-11T10:34:30.780Z,17.98
2022-10-11T10:37:04.888Z,18.43
2022-10-11T10:39:40.123Z,18.27
2022-10-11T10:42:14.849Z,18.43
2022-10-11T10:44:43.081Z,18.69
2022-10-11T10:47:20.824Z,18.53
2022-10-11T10:49:58.254Z,18.34
2022-10-11T10:52:47.470Z,18.25
2022-10-11T10:55:25.210Z,17.40
2022-10-11T10:58:06.410Z,18.36
2022-10-11T11:00:41.838Z,17.82
2022-10-11T11:03:17.186Z,18.37
2022-10-11T11:05:51.446Z,18.61
2022-10-11T11:08:36.206Z,18.78
2022-10-11T11:11:12.196Z,18.35
2022-10-11T11:13:48.381Z,18.83
2022-10-11T11:16:25.068Z,18.82
2022-10-11T11:18:59.282Z,18.48
2022-10-11T11:21:41.553Z,18.71
2022-10-11T11:24:17.547Z,19.04
2022-10-11T11:26:53.448Z,18.53
2022-10-11T11:29:39.439Z,18.80
2022-10-11T11:32:17.762Z,18.01
2022-10-11T11:34:49.048Z,18.70
2022-10-11T11:37:26.223Z,18.84
2022-10-11T11:39:58.685Z,18.20
2022-10-11T11:42:32.153Z,18.60
2022-10-11T11:45:06.645Z,18.38
2022-10-11T11:47:37.558Z,18.16
2022-10-11T11:50:20.770Z,18.64
2022-10-11T11:52:51.440Z,18.15
2022-10-11T11:55:27.866Z,17.34
2022-10-11T11:58:07.257Z,17.40
2022-10-11T12:00:43.690Z,16.85
2022-10-11T12:03:17.458Z,17.37
2022-10-11T12:06:27.103Z,17.21
2022-10-11T12:09:05.065Z,17.63
2022-10-11T12:11:45.680Z,17.52
2022-10-11T12:14:24.880Z,17.49
2022-10-11T12:17:17.161Z,17.65
2022-10-11T12:20:03.227Z,17.49
2022-10-11T12:23:00.168Z,17.63
2022-10-11T12:25:41.110Z,17.18
2022-10-11T12:29:00.523Z,17.78
2022-10-11T12:31:30.811Z,17.24
2022-10-11T12:34:21.108Z,17.70
2022-10-11T12:36:50.354Z,17.37
2022-10-11T12:39:52.752Z,17.48
2022-10-11T12:42:31.176Z,17.95
2022-10-11T12:45:35.105Z,17.98
2022-10-11T12:48:14.060Z,17.89
2022-10-11T12:50:58.524Z,18.10
2022-10-11T12:54:21.481Z,17.96
2022-10-11T12:56:49.839Z,18.08
2022-10-11T12:59:20.541Z,18.17
2022-10-11T13:01:52.594Z,18.35
2022-10-11T13:04:23.330Z,18.57
2022-10-11T13:06:54.284Z,17.97
2022-10-11T13:09:29.703Z,18.02
2022-10-11T13:12:04.073Z,18.37
2022-10-11T13:14:37.653Z,18.55
2022-10-11T13:17:09.265Z,18.70
2022-10-11T13:22:19.119Z,18.30
2022-10-11T13:24:46.871Z,18.55
2022-10-11T13:27:20.296Z,18.13
2022-10-11T13:29:50.069Z,17.91
2022-10-11T13:32:24.280Z,18.06
2022-10-11T13:37:30.659Z,18.05
2022-10-11T13:39:58.761Z,17.99
2022-10-11T13:42:30.658Z,17.58
2022-10-11T13:44:59.520Z,17.56
2022-10-11T13:47:31.092Z,17.99
2022-10-11T13:50:04.232Z,17.77
2022-10-11T13:52:32.102Z,17.57
2022-10-11T13:55:22.876Z,17.76
2022-10-11T13:57:52.236Z,17.72
2022-10-11T14:00:28.723Z,17.99
2022-10-11T14:03:01.002Z,17.69
2022-10-11T14:05:32.561Z,17.92
2022-10-11T14:08:03.335Z,18.15
2022-10-11T14:10:31.609Z,18.28
2022-10-11T14:13:06.484Z,18.32
2022-10-11T14:15:36.242Z,18.32
2022-10-11T14:18:34.529Z,18.19
2022-10-11T14:21:27.332Z,18.01
2022-10-11T14:23:57.165Z,18.58
2022-10-11T14:26:27.320Z,18.61
2022-10-11T14:28:59.150Z,18.76
2022-10-11T14:31:27.995Z,18.75
2022-10-11T14:33:57.696Z,18.88
2022-10-11T14:36:26.331Z,18.35
2022-10-11T14:38:54.580Z,18.70
2022-10-11T14:41:22.296Z,19.11
2022-10-11T14:43:50.229Z,19.12
2022-10-11T14:46:23.974Z,18.99
2022-10-11T14:48:56.748Z,18.86
2022-10-11T14:51:32.257Z,18.38
2022-10-11T14:54:00.057Z,18.68
2022-10-11T14:56:27.757Z,18.82
2022-10-11T14:58:55.596Z,18.80
2022-10-11T15:01:23.448Z,18.07
2022-10-11T15:03:51.397Z,18.00
2022-10-11T15:06:21.457Z,18.18
2022-10-11T15:08:51.027Z,18.25
2022-10-11T15:11:21.241Z,17.98
2022-10-11T15:13:49.759Z,18.11
2022-10-11T15:16:20.427Z,18.15
2022-10-11T15:18:50.970Z,18.02
2022-10-11T15:21:20.618Z,17.59
2022-10-11T15:23:50.206Z,17.85
2022-10-11T15:26:20.597Z,17.89
2022-10-11T15:28:49.879Z,18.02
2022-10-11T15:31:18.456Z,17.97
2022-10-11T15:33:46.615Z,17.95
2022-10-11T15:36:17.531Z,18.00
2022-10-11T15:38:46.368Z,18.22
2022-10-11T15:41:18.930Z,18.01
2022-10-11T15:43:49.136Z,17.94
2022-10-11T15:46:19.709Z,17.96
2022-10-11T15:48:48.244Z,17.86
2022-10-11T15:51:16.295Z,17.81
2022-10-11T15:53:44.390Z,17.34
2022-10-11T15:56:17.250Z,17.17
2022-10-11T15:58:45.705Z,17.08
2022-10-11T16:01:16.012Z,17.43
2022-10-11T16:03:44.324Z,16.85
2022-10-11T16:06:13.002Z,17.47
2022-10-11T16:08:41.498Z,17.30
2022-10-11T16:11:10.816Z,17.41
2022-10-11T16:13:40.452Z,17.49
2022-10-11T16:16:10.557Z,17.54
2022-10-11T16:18:39.318Z,17.42
2022-10-11T16:21:09.497Z,17.35
2022-10-11T16:23:38.013Z,17.48
2022-10-11T16:26:08.630Z,17.57
2022-10-11T16:28:37.663Z,17.41
2022-10-11T16:31:09.239Z,17.44
2022-10-11T16:33:45.395Z,17.38
2022-10-11T16:36:28.601Z,17.47
2022-10-11T16:38:56.357Z,17.39
2022-10-11T16:41:24.100Z,17.47
2022-10-11T16:43:52.306Z,17.22
2022-10-11T16:46:21.916Z,17.19
2022-10-11T16:48:49.981Z,17.25
2022-10-11T16:51:17.805Z,17.09
2022-10-11T16:53:45.593Z,17.19
2022-10-11T16:56:13.858Z,17.05
2022-10-11T16:58:41.724Z,17.26
2022-10-11T17:01:11.264Z,17.30
2022-10-11T17:03:40.775Z,16.93
2022-10-11T17:06:09.354Z,17.04
2022-10-11T17:08:37.459Z,17.11
2022-10-11T17:11:05.442Z,17.24
2022-10-11T17:13:33.478Z,17.10
2022-10-11T17:16:01.248Z,17.19
2022-10-11T17:18:29.438Z,17.26
2022-10-11T17:21:03.596Z,17.10
2022-10-11T17:23:31.887Z,17.19
2022-10-11T17:26:08.616Z,17.07
2022-10-11T17:28:39.674Z,17.07
2022-10-11T17:31:08.897Z,16.75
2022-10-11T17:33:37.301Z,16.75
2022-10-11T17:36:15.672Z,16.50
2022-10-11T17:38:43.545Z,16.79
2022-10-11T17:41:12.033Z,16.88
2022-10-11T17:43:40.034Z,16.54
2022-10-11T17:46:09.183Z,16.94
2022-10-11T17:48:39.414Z,16.91
2022-10-11T17:51:10.278Z,16.88
2022-10-11T17:53:38.795Z,16.76
2022-10-11T17:56:08.285Z,16.91
2022-10-11T17:58:38.396Z,16.73
2022-10-11T18:01:08.425Z,16.67
2022-10-11T18:03:36.458Z,16.50
2022-10-11T18:06:05.653Z,16.57
2022-10-11T18:08:39.992Z,16.61
2022-10-11T18:11:11.652Z,16.42
2022-10-11T18:13:42.559Z,16.38
2022-10-11T18:16:11.495Z,15.93
2022-10-11T18:18:39.994Z,16.23
2022-10-11T18:21:07.935Z,16.31
2022-10-11T18:23:38.289Z,16.37
2022-10-11T18:26:10.933Z,15.99
2022-10-11T18:28:38.926Z,15.61
2022-10-11T18:31:12.617Z,15.77
2022-10-11T18:33:41.631Z,15.93
2022-10-11T18:36:11.023Z,16.07
2022-10-11T18:38:43.873Z,14.98
2022-10-11T18:41:13.166Z,15.09
2022-10-11T18:43:41.311Z,15.44
2022-10-11T18:46:13.559Z,15.06
2022-10-11T18:48:41.969Z,15.30
2022-10-11T18:51:12.512Z,15.45
2022-10-11T18:53:42.304Z,15.36
2022-10-11T18:56:11.987Z,14.70
2022-10-11T18:58:41.012Z,14.80
2022-10-11T19:01:10.731Z,14.97
2022-10-11T19:03:38.534Z,15.13
2022-10-11T19:06:08.759Z,14.79
2022-10-11T19:08:36.664Z,14.57
2022-10-11T19:11:09.040Z,14.58
2022-10-11T19:13:37.564Z,14.64
2022-10-11T19:16:07.139Z,14.45
2022-10-11T19:18:36.283Z,13.41
2022-10-11T19:21:09.052Z,14.15
2022-10-11T19:23:39.338Z,14.02
2022-10-11T19:26:09.867Z,13.89
2022-10-11T19:28:37.753Z,13.68
2022-10-11T19:31:07.881Z,13.76
2022-10-11T19:33:39.060Z,13.58
2022-10-11T19:36:07.838Z,13.37
2022-10-11T19:38:37.139Z,13.27
2022-10-11T19:41:05.796Z,13.37
2022-10-11T19:43:35.154Z,13.32
2022-10-11T19:46:03.645Z,13.07
2022-10-11T19:48:32.381Z,12.98
2022-10-11T19:51:05.449Z,12.76
2022-10-11T19:53:33.707Z,12.92
2022-10-11T19:56:02.506Z,13.12
2022-10-11T19:58:30.727Z,13.19
2022-10-11T20:01:05.230Z,13.11
2022-10-11T20:03:33.376Z,12.76
2022-10-11T20:06:01.567Z,12.58
2022-10-11T20:08:31.352Z,12.50
2022-10-11T20:10:59.740Z,12.67
2022-10-11T20:13:33.834Z,12.42
2022-10-11T20:16:06.315Z,12.39
2022-10-11T20:18:34.617Z,12.40
2022-10-11T20:21:04.519Z,12.26
2022-10-11T20:23:33.009Z,12.36
2022-10-11T20:26:02.142Z,12.39
2022-10-11T20:28:31.971Z,12.31
2022-10-11T20:31:00.867Z,12.21
2022-10-11T20:33:32.790Z,12.22
2022-10-11T20:36:02.382Z,12.17
2022-10-11T20:38:31.249Z,11.91
2022-10-11T20:40:59.772Z,11.88
2022-10-11T20:43:27.483Z,11.82
2022-10-11T20:45:59.779Z,11.46
2022-10-11T20:48:27.609Z,11.70
2022-10-11T20:50:56.988Z,11.80
2022-10-11T20:53:25.501Z,11.63
2022-10-11T20:55:53.453Z,11.05
2022-10-11T20:58:21.660Z,11.79
2022-10-11T21:00:49.792Z,11.48
2022-10-11T21:03:18.162Z,11.47
2022-10-11T21:05:46.484Z,11.44
2022-10-11T21:08:15.619Z,11.27
2022-10-11T21:10:52.421Z,11.51
2022-10-11T21:13:20.143Z,11.67
2022-10-11T21:15:47.890Z,11.49
2022-10-11T21:18:15.699Z,11.82
2022-10-11T21:20:44.681Z,11.27
2022-10-11T21:23:13.584Z,11.29
2022-10-11T21:25:42.713Z,11.22
2022-10-11T21:28:10.414Z,11.10
2022-10-11T21:30:38.067Z,11.13
2022-10-11T21:33:05.751Z,11.25
2022-10-11T21:35:33.418Z,11.11
2022-10-11T21:38:01.645Z,11.00
2022-10-11T21:40:29.603Z,11.15
2022-10-11T21:42:58.821Z,11.23
2022-10-11T21:45:26.590Z,11.01
2022-10-11T21:47:54.257Z,11.08
2022-10-11T21:50:22.332Z,11.05
2022-10-11T21:52:50.010Z,10.69
2022-10-11T21:55:17.917Z,10.57
2022-10-11T21:57:45.572Z,10.83
2022-10-11T22:00:15.539Z,10.95
2022-10-11T22:02:43.258Z,11.10
2022-10-11T22:05:11.046Z,11.11
2022-10-11T22:07:38.710Z,10.84
2022-10-11T22:10:07.014Z,10.84
2022-10-11T22:12:34.912Z,10.84
2022-10-11T22:15:02.734Z,10.94
2022-10-11T22:17:31.809Z,10.68
2022-10-11T22:19:59.503Z,10.63
2022-10-11T22:22:27.156Z,10.59
2022-10-11T22:24:54.809Z,10.78
2022-10-11T22:27:22.544Z,10.97
2022-10-11T22:29:50.385Z,10.99
2022-10-11T22:32:18.068Z,10.89
2022-10-11T22:34:47.146Z,10.89
2022-10-11T22:37:14.814Z,10.85
2022-10-11T22:39:42.583Z,10.99
2022-10-11T22:42:10.362Z,11.09
2022-10-11T22:44:38.074Z,11.17
2022-10-11T22:47:05.915Z,11.00
2022-10-11T22:49:33.595Z,10.89
2022-10-11T22:52:02.651Z,10.75
2022-10-11T22:54:31.458Z,10.88
2022-10-11T22:56:59.218Z,10.72
2022-10-11T22:59:26.923Z,10.82
2022-10-11T23:01:54.599Z,10.80
2022-10-11T23:04:22.363Z,10.86
2022-10-11T23:06:50.333Z,10.80
2022-10-11T23:09:19.461Z,10.66
2022-10-11T23:11:47.094Z,10.88
2022-10-11T23:14:14.993Z,10.97
2022-10-11T23:16:42.656Z,10.87
2022-10-11T23:19:10.362Z,11.06
2022-10-11T23:21:38.032Z,11.05
2022-10-11T23:24:06.149Z,11.01
2022-10-11T23:26:35.322Z,10.99
2022-10-11T23:29:03.152Z,10.90
2022-10-11T23:31:30.919Z,10.92
2022-10-11T23:33:59.032Z,10.98
2022-10-11T23:36:27.281Z,11.13
2022-10-11T23:38:57.124Z,11.21
2022-10-11T23:41:27.249Z,11.36
2022-10-11T23:43:56.428Z,11.44
2022-10-11T23:46:24.063Z,11.50
2022-10-11T23:48:51.711Z,11.52
2022-10-11T23:51:19.556Z,11.57
2022-10-11T23:53:47.281Z,11.62
2022-10-11T23:56:14.980Z,11.54
2022-10-11T23:58:42.668Z,11.63
